createdAt,value
2022-08-05T00:02:12.242Z,2.10
2022-08-05T00:08:00.301Z,1.90
2022-08-05T00:13:18.718Z,2.08
2022-08-05T00:18:42.944Z,1.73
2022-08-05T00:24:11.038Z,2.00
2022-08-05T00:29:38.141Z,1.90
2022-08-05T00:35:06.153Z,1.80
2022-08-05T00:40:29.463Z,1.70
2022-08-05T00:45:50.436Z,1.80
2022-08-05T00:51:51.763Z,1.80
2022-08-05T00:56:55.784Z,2.10
2022-08-05T01:02:16.646Z,1.67
2022-08-05T01:07:37.667Z,1.90
2022-08-05T01:13:58.302Z,1.80
2022-08-05T01:19:56.002Z,1.80
2022-08-05T01:25:40.407Z,2.10
2022-08-05T01:31:28.115Z,1.60
2022-08-05T01:37:03.229Z,2.40
2022-08-05T01:42:26.947Z,1.70
2022-08-05T01:47:50.170Z,1.60
2022-08-05T01:53:17.345Z,1.90
2022-08-05T01:59:00.707Z,2.08
2022-08-05T02:04:24.229Z,1.83
2022-08-05T02:09:46.461Z,1.70
2022-08-05T02:15:13.068Z,1.83
2022-08-05T02:20:49.754Z,2.00
2022-08-05T02:26:17.081Z,2.45
2022-08-05T02:31:40.552Z,1.85
2022-08-05T02:37:04.473Z,1.98
2022-08-05T02:42:30.733Z,1.98
2022-08-05T02:48:06.623Z,1.80
2022-08-05T02:53:39.431Z,2.00
2022-08-05T02:59:02.129Z,2.20
2022-08-05T03:04:23.182Z,1.90
2022-08-05T03:09:51.595Z,2.00
2022-08-05T03:15:12.656Z,2.10
2022-08-05T03:20:33.155Z,1.90
2022-08-05T03:26:04.267Z,2.00
2022-08-05T03:31:57.194Z,2.10
2022-08-05T03:37:15.860Z,1.90
2022-08-05T03:42:41.853Z,2.08
2022-08-05T03:48:14.049Z,1.80
2022-08-05T03:59:47.343Z,1.92
2022-08-05T04:05:15.931Z,2.08
2022-08-05T04:10:38.397Z,2.33
2022-08-05T04:16:04.250Z,2.00
2022-08-05T04:22:05.830Z,1.85
2022-08-05T04:27:06.301Z,2.00
2022-08-05T04:32:31.292Z,1.95
2022-08-05T04:38:02.540Z,2.10
2022-08-05T04:43:27.594Z,2.25
2022-08-05T04:48:48.084Z,2.03
2022-08-05T04:54:12.493Z,2.47
2022-08-05T04:59:38.391Z,2.10
2022-08-05T05:05:01.781Z,2.17
2022-08-05T05:10:24.135Z,2.10
2022-08-05T05:15:56.714Z,2.00
2022-08-05T05:21:22.829Z,2.10
2022-08-05T05:26:51.923Z,2.15
2022-08-05T05:32:15.746Z,2.40
2022-08-05T05:37:59.824Z,2.47
2022-08-05T05:43:56.488Z,2.13
2022-08-05T05:49:06.425Z,2.25
2022-08-05T05:54:35.456Z,2.47
2022-08-05T06:00:17.681Z,2.40
2022-08-05T06:05:38.612Z,2.20
2022-08-05T06:10:59.737Z,2.28
2022-08-05T06:16:28.359Z,2.35
2022-08-05T06:21:52.800Z,2.40
2022-08-05T06:28:08.734Z,2.58
2022-08-05T06:32:55.739Z,2.67
2022-08-05T06:38:17.265Z,2.50
2022-08-05T06:44:00.413Z,2.50
2022-08-05T06:50:01.813Z,2.58
2022-08-05T06:55:02.754Z,2.30
2022-08-05T07:00:24.688Z,2.70
2022-08-05T07:05:46.560Z,1.98
2022-08-05T07:11:07.287Z,2.00
2022-08-05T07:18:01.693Z,2.10
2022-08-05T07:22:32.952Z,2.50
2022-08-05T07:27:57.251Z,2.13
2022-08-05T07:33:36.526Z,2.15
2022-08-05T07:38:58.197Z,2.20
2022-08-05T07:44:19.681Z,2.05
2022-08-05T07:49:43.404Z,2.15
2022-08-05T07:55:15.870Z,2.00
2022-08-05T08:00:56.426Z,1.95
2022-08-05T08:06:17.805Z,2.08
2022-08-05T08:11:48.249Z,2.15
2022-08-05T08:17:16.401Z,1.80
2022-08-05T08:22:37.470Z,2.10
2022-08-05T08:27:59.597Z,1.90
2022-08-05T08:33:20.193Z,2.00
2022-08-05T08:38:41.028Z,2.00
2022-08-05T08:45:20.621Z,2.13
2022-08-05T08:50:14.290Z,2.15
2022-08-05T08:56:01.901Z,2.50
2022-08-05T09:01:15.609Z,2.30
2022-08-05T09:06:37.701Z,2.70
2022-08-05T09:12:14.343Z,2.13
2022-08-05T09:17:45.738Z,2.15
2022-08-05T09:23:18.562Z,1.98
2022-08-05T09:28:41.087Z,2.00
2022-08-05T09:34:05.127Z,2.10
2022-08-05T09:39:41.917Z,2.10
2022-08-05T09:46:02.694Z,2.20
2022-08-05T09:50:51.655Z,2.28
2022-08-05T09:56:13.390Z,2.90
2022-08-05T10:01:36.934Z,2.42
2022-08-05T10:07:01.546Z,2.33
2022-08-05T10:12:49.990Z,2.05
2022-08-05T10:18:22.534Z,2.40
2022-08-05T10:23:55.479Z,2.13
2022-08-05T10:29:22.002Z,2.33
2022-08-05T10:34:45.605Z,1.88
2022-08-05T10:40:19.548Z,2.08
2022-08-05T10:45:42.349Z,2.20
2022-08-05T10:51:22.489Z,2.00
2022-08-05T10:56:52.923Z,2.22
2022-08-05T11:02:37.656Z,2.38
2022-08-05T11:08:02.680Z,2.13
2022-08-05T11:13:54.854Z,2.70
2022-08-05T11:20:10.226Z,2.15
2022-08-05T11:26:04.815Z,2.17
2022-08-05T11:31:58.330Z,2.63
2022-08-05T11:38:28.524Z,3.10
2022-08-05T11:44:05.093Z,2.17
2022-08-05T11:49:09.971Z,2.40
2022-08-05T11:54:34.890Z,2.33
2022-08-05T11:59:55.871Z,2.55
2022-08-05T12:05:36.434Z,2.28
2022-08-05T12:11:05.479Z,2.13
2022-08-05T12:16:28.887Z,2.50
2022-08-05T12:21:51.113Z,2.55
2022-08-05T12:27:25.350Z,2.42
2022-08-05T12:32:53.663Z,2.25
2022-08-05T12:38:18.424Z,2.28
2022-08-05T12:43:55.072Z,2.17
2022-08-05T12:49:16.191Z,2.42
2022-08-05T12:54:41.208Z,2.65
2022-08-05T13:02:00.762Z,2.65
2022-08-05T13:05:42.958Z,3.05
2022-08-05T13:11:04.154Z,2.08
2022-08-05T13:16:27.715Z,2.65
2022-08-05T13:21:52.585Z,2.35
2022-08-05T13:27:37.489Z,2.33
2022-08-05T13:33:01.392Z,2.78
2022-08-05T13:38:31.056Z,2.78
2022-08-05T13:43:55.528Z,2.40
2022-08-05T13:49:15.945Z,2.72
2022-08-05T13:54:36.488Z,2.33
2022-08-05T14:00:01.858Z,2.70
2022-08-05T14:06:24.780Z,2.72
2022-08-05T14:11:20.489Z,2.53
2022-08-05T14:16:43.265Z,3.35
2022-08-05T14:22:12.124Z,2.70
2022-08-05T14:27:33.049Z,3.08
2022-08-05T14:32:54.182Z,2.95
2022-08-05T14:38:32.341Z,2.35
2022-08-05T14:44:02.551Z,2.90
2022-08-05T14:49:56.418Z,2.47
2022-08-05T14:55:14.003Z,2.90
2022-08-05T15:00:39.207Z,3.42
2022-08-05T15:06:20.064Z,3.50
2022-08-05T15:11:52.656Z,3.72
2022-08-05T15:17:45.602Z,3.22
2022-08-05T15:22:55.071Z,3.10
2022-08-05T15:28:16.739Z,2.97
2022-08-05T15:34:05.063Z,3.17
2022-08-05T15:41:01.993Z,3.13
2022-08-05T15:44:59.588Z,2.67
2022-08-05T15:50:20.929Z,2.90
2022-08-05T15:56:02.934Z,3.17
2022-08-05T16:01:29.456Z,3.00
2022-08-05T16:06:50.476Z,3.40
2022-08-05T16:12:11.462Z,3.47
2022-08-05T16:17:32.681Z,3.13
2022-08-05T16:22:53.342Z,2.85
2022-08-05T16:28:15.632Z,3.15
2022-08-05T16:33:41.334Z,3.20
2022-08-05T16:39:02.507Z,3.20
2022-08-05T16:44:25.769Z,3.17
2022-08-05T16:49:47.186Z,3.20
2022-08-05T16:55:14.345Z,3.45
2022-08-05T17:00:37.739Z,3.40
2022-08-05T17:06:00.516Z,3.08
2022-08-05T17:11:23.761Z,3.40
2022-08-05T17:16:46.270Z,3.75
2022-08-05T17:22:25.142Z,3.90
2022-08-05T17:27:46.596Z,3.75
2022-08-05T17:33:07.850Z,3.47
2022-08-05T17:38:29.424Z,3.70
2022-08-05T17:43:53.223Z,3.50
2022-08-05T17:49:14.266Z,3.58
2022-08-05T17:54:37.535Z,3.63
2022-08-05T18:00:03.078Z,3.08
2022-08-05T18:05:28.234Z,3.63
2022-08-05T18:10:56.203Z,3.70
2022-08-05T18:16:18.088Z,3.20
2022-08-05T18:22:09.353Z,2.15
2022-08-05T18:27:22.414Z,2.75
2022-08-05T18:32:43.062Z,2.17
2022-08-05T18:38:26.309Z,2.07
2022-08-05T18:43:48.687Z,2.08
2022-08-05T18:49:30.392Z,2.00
2022-08-05T18:54:51.511Z,2.00
2022-08-05T19:00:20.267Z,1.95
2022-08-05T19:06:11.658Z,2.25
2022-08-05T19:11:27.893Z,2.65
2022-08-05T19:16:49.649Z,2.03
2022-08-05T19:22:12.480Z,2.20
2022-08-05T19:27:39.061Z,2.45
2022-08-05T19:33:00.513Z,2.00
2022-08-05T19:38:26.432Z,1.80
2022-08-05T19:44:05.347Z,2.08
2022-08-05T19:54:27.225Z,2.70
2022-08-05T20:05:28.683Z,2.90
2022-08-05T20:11:04.278Z,3.60
2022-08-05T20:16:26.533Z,3.40
2022-08-05T20:21:48.605Z,2.80
2022-08-05T20:27:11.664Z,2.90
2022-08-05T20:32:32.381Z,2.60
2022-08-05T20:38:06.227Z,2.50
2022-08-05T20:43:57.571Z,2.58
2022-08-05T20:49:09.604Z,2.65
2022-08-05T20:54:42.819Z,2.53
2022-08-05T21:00:34.961Z,2.80
2022-08-05T21:05:57.269Z,2.67
2022-08-05T21:12:08.890Z,2.80
2022-08-05T21:17:00.851Z,2.78
2022-08-05T21:22:23.322Z,2.92
2022-08-05T21:27:47.525Z,2.80
2022-08-05T21:37:53.436Z,2.40
2022-08-05T21:43:17.848Z,1.98
2022-08-05T21:48:45.783Z,2.45
2022-08-05T21:54:06.913Z,2.10
2022-08-05T21:59:48.061Z,1.85
2022-08-05T22:05:12.444Z,2.10
2022-08-05T22:10:33.100Z,2.03
2022-08-05T22:16:02.729Z,1.90
2022-08-05T22:21:32.056Z,1.90
2022-08-05T22:27:13.961Z,2.00
2022-08-05T22:32:37.242Z,1.85
2022-08-05T22:38:01.001Z,1.50
2022-08-05T22:43:37.015Z,2.05
2022-08-05T22:48:58.856Z,1.63
2022-08-05T22:54:19.591Z,2.08
2022-08-05T22:59:51.836Z,3.10
2022-08-05T23:05:15.425Z,2.22
2022-08-05T23:10:35.887Z,2.85
2022-08-05T23:16:00.165Z,3.15
2022-08-05T23:21:21.248Z,2.97
2022-08-05T23:26:41.828Z,3.15
2022-08-05T23:32:05.470Z,2.78
2022-08-05T23:37:26.618Z,2.95
2022-08-05T23:42:54.789Z,3.55
2022-08-05T23:48:15.584Z,3.35
2022-08-05T23:53:46.942Z,2.85
2022-08-05T23:59:07.703Z,2.85
